Broadview, MT (59015)

7:21 PM MDT on April 25, 2015 (GMT -0600)
RAWS | | Change Station
CLOSE
Current Station
Personal Weather Station
Location: Roundup, MT
Elevation: 3414 ft
Nearby Weather Stations

Elev 3414 ft 46.43 °N, 108.67 °W | Updated 42 minutes ago

Partly Cloudy
Partly Cloudy
55 °F
Feels Like 55 °F
N
4
Wind Variable Wind from NNE
Gusts 15.0 mph

Today
High -- | Low -- °F
--% Chance of Precip.
Yesterday
High -- | Low -- °F
Precip. -- in
6:12 AM 8:16 PM
Waxing Crescent, 50% visible
Pressure 29.85 in
Visibility 10.0 miles
Clouds Few 3500 ft
Scattered Clouds 20000 ft
Dew Point 32 °F
Humidity 42%
Rainfall in
Snow Depth Not available.
UV 1 out of 12
Pollen 4.40 out of 12
Air Quality Not available.
Flu Activity Local Activity
METAR KBIL 260053Z 06007KT 10SM FEW035 SCT200 09/01 A2982 RMK AO2 SLP106 T00890011

More Conditions Fewer Conditions

Pressure 29.85 in
Visibility 10.0 miles
Clouds Few 3500 ft
Scattered Clouds 20000 ft
Dew Point 32 °F
Humidity 42%
Rainfall in
Snow Depth Not available.
UV 1 out of 12
Pollen 4.40 out of 12
Air Quality Not available.
Flu Activity Local Activity
METAR KBIL 260053Z 06007KT 10SM FEW035 SCT200 09/01 A2982 RMK AO2 SLP106 T00890011

More Conditions Fewer Conditions

10-Day Weather Forecast

Almanac

Astronomy

Apr. 25, 2015 Rise Set
Actual Time
Civil Twilight
Nautical Twilight
Astronomical Twilight
Moon
Length of Visible Light
Length of Day
Tomorrow will be .
, % of the Moon is Illuminated

Today's Extremes

State Highs State Lows

Community

WunderPhotos

Upload Photos

1,816,887 photos uploaded!

WunderBlogs® & News

Nearby

Air Quality

  Air Quality AQ Index Pollutant
Not available.

Snow Depth

Station Depth Elevation

Earthquake Activity

City Distance Mag. Time & Date
Minimum magnitude displayed is 2.5.

Coastal Water Temperatures

Place Temperature

Stations

Nearby Weather Stations

Station Location Temp. Windchill Dew Point Humidity Wind Precip. Elev Updated Type